Terminal Aerodrome Forecast
Issued by NWS

Home | Current Version | Previous Version | Text Only | Print | Product List | Glossary Off
Versions: 1 2 3 4 5 6 7 8 9 10 11 12 13 14 15 16 17 18 19 20 21 22 23 24 25

000
FTUS43 KLOT 211735
TAFDPA
TAF
KDPA 211735Z 2118/2218 13009KT P6SM SCT100 BKN250
     FM212000 14008KT P6SM SCT090 BKN150
     FM220100 13005KT P6SM BKN100 PROB30 2204/2206 6SM -TSRA
      BKN080CB
     FM220800 19010KT P6SM BKN100
     FM221400 21012G22KT P6SM BKN200=

USA.gov is the U.S. government's official web portal to all federal, state and local government web resources and services.